sensor_id;sensor_type;location;lat;lon;timestamp;P1;durP1;ratioP1;P2;durP2;ratioP2
10074;SDS011;5076;42.680;23.288;2022-11-03T00:00:03;5.97;;;3.30;;
10074;SDS011;5076;42.680;23.288;2022-11-03T00:02:29;5.67;;;2.63;;
10074;SDS011;5076;42.680;23.288;2022-11-03T00:04:56;4.97;;;2.67;;
10074;SDS011;5076;42.680;23.288;2022-11-03T00:07:42;5.63;;;3.37;;
10074;SDS011;5076;42.680;23.288;2022-11-03T00:10:09;5.80;;;3.03;;
10074;SDS011;5076;42.680;23.288;2022-11-03T00:12:37;5.57;;;2.70;;
10074;SDS011;5076;42.680;23.288;2022-11-03T00:15:04;5.57;;;2.90;;
10074;SDS011;5076;42.680;23.288;2022-11-03T00:17:30;6.53;;;3.47;;
10074;SDS011;5076;42.680;23.288;2022-11-03T00:19:57;4.17;;;2.80;;
10074;SDS011;5076;42.680;23.288;2022-11-03T00:22:23;8.60;;;3.40;;
10074;SDS011;5076;42.680;23.288;2022-11-03T00:24:50;4.40;;;2.83;;
10074;SDS011;5076;42.680;23.288;2022-11-03T00:27:16;8.80;;;3.53;;
10074;SDS011;5076;42.680;23.288;2022-11-03T00:29:44;6.10;;;2.87;;
10074;SDS011;5076;42.680;23.288;2022-11-03T00:32:11;6.03;;;2.97;;
10074;SDS011;5076;42.680;23.288;2022-11-03T00:34:37;5.57;;;2.93;;
10074;SDS011;5076;42.680;23.288;2022-11-03T00:37:04;6.77;;;3.00;;
10074;SDS011;5076;42.680;23.288;2022-11-03T00:39:31;6.77;;;3.63;;
10074;SDS011;5076;42.680;23.288;2022-11-03T00:41:57;6.47;;;3.07;;
10074;SDS011;5076;42.680;23.288;2022-11-03T00:44:24;5.77;;;2.60;;
10074;SDS011;5076;42.680;23.288;2022-11-03T00:46:52;4.17;;;2.93;;
10074;SDS011;5076;42.680;23.288;2022-11-03T00:49:19;6.70;;;3.17;;
10074;SDS011;5076;42.680;23.288;2022-11-03T00:51:45;4.57;;;2.87;;
10074;SDS011;5076;42.680;23.288;2022-11-03T00:54:12;4.77;;;2.70;;
10074;SDS011;5076;42.680;23.288;2022-11-03T00:56:39;4.00;;;2.67;;
10074;SDS011;5076;42.680;23.288;2022-11-03T00:59:07;6.30;;;3.03;;
10074;SDS011;5076;42.680;23.288;2022-11-03T01:01:35;8.73;;;3.30;;
10074;SDS011;5076;42.680;23.288;2022-11-03T01:04:06;8.47;;;3.50;;
10074;SDS011;5076;42.680;23.288;2022-11-03T01:06:50;4.23;;;3.10;;
10074;SDS011;5076;42.680;23.288;2022-11-03T01:09:18;5.13;;;3.20;;
10074;SDS011;5076;42.680;23.288;2022-11-03T01:11:48;4.93;;;3.50;;
10074;SDS011;5076;42.680;23.288;2022-11-03T01:14:16;6.23;;;4.10;;
10074;SDS011;5076;42.680;23.288;2022-11-03T01:16:43;6.00;;;3.50;;
10074;SDS011;5076;42.680;23.288;2022-11-03T01:19:11;5.37;;;3.90;;
10074;SDS011;5076;42.680;23.288;2022-11-03T01:21:37;6.53;;;3.63;;
10074;SDS011;5076;42.680;23.288;2022-11-03T01:24:04;7.63;;;3.43;;
10074;SDS011;5076;42.680;23.288;2022-11-03T01:26:31;5.37;;;3.07;;
10074;SDS011;5076;42.680;23.288;2022-11-03T01:28:58;5.17;;;3.60;;
10074;SDS011;5076;42.680;23.288;2022-11-03T01:31:25;6.40;;;3.20;;
10074;SDS011;5076;42.680;23.288;2022-11-03T01:33:52;6.43;;;3.27;;
10074;SDS011;5076;42.680;23.288;2022-11-03T01:36:21;7.80;;;3.67;;
10074;SDS011;5076;42.680;23.288;2022-11-03T01:38:47;7.20;;;3.10;;
10074;SDS011;5076;42.680;23.288;2022-11-03T01:41:14;7.37;;;3.40;;
10074;SDS011;5076;42.680;23.288;2022-11-03T01:43:41;6.67;;;3.57;;
10074;SDS011;5076;42.680;23.288;2022-11-03T01:46:11;7.47;;;4.77;;
10074;SDS011;5076;42.680;23.288;2022-11-03T01:48:40;8.37;;;4.33;;
10074;SDS011;5076;42.680;23.288;2022-11-03T01:51:08;8.37;;;4.60;;
10074;SDS011;5076;42.680;23.288;2022-11-03T01:53:37;8.33;;;4.90;;
10074;SDS011;5076;42.680;23.288;2022-11-03T01:56:06;9.30;;;5.60;;
10074;SDS011;5076;42.680;23.288;2022-11-03T01:58:34;9.30;;;5.53;;
10074;SDS011;5076;42.680;23.288;2022-11-03T02:01:02;11.73;;;5.47;;
10074;SDS011;5076;42.680;23.288;2022-11-03T02:03:30;7.77;;;5.17;;
10074;SDS011;5076;42.680;23.288;2022-11-03T02:05:59;8.70;;;5.20;;
10074;SDS011;5076;42.680;23.288;2022-11-03T02:08:27;7.73;;;5.67;;
10074;SDS011;5076;42.680;23.288;2022-11-03T02:10:57;9.47;;;5.87;;
10074;SDS011;5076;42.680;23.288;2022-11-03T02:13:24;12.77;;;6.43;;
10074;SDS011;5076;42.680;23.288;2022-11-03T02:15:51;11.53;;;6.30;;
10074;SDS011;5076;42.680;23.288;2022-11-03T02:18:19;9.80;;;5.70;;
10074;SDS011;5076;42.680;23.288;2022-11-03T02:20:47;10.30;;;6.07;;
10074;SDS011;5076;42.680;23.288;2022-11-03T02:23:19;10.80;;;5.93;;
10074;SDS011;5076;42.680;23.288;2022-11-03T02:25:52;10.83;;;6.57;;
10074;SDS011;5076;42.680;23.288;2022-11-03T02:28:20;11.27;;;6.10;;
10074;SDS011;5076;42.680;23.288;2022-11-03T02:30:49;9.33;;;5.60;;
10074;SDS011;5076;42.680;23.288;2022-11-03T02:33:19;8.77;;;6.07;;
10074;SDS011;5076;42.680;23.288;2022-11-03T02:35:50;9.40;;;5.97;;
10074;SDS011;5076;42.680;23.288;2022-11-03T02:38:18;9.27;;;5.80;;
10074;SDS011;5076;42.680;23.288;2022-11-03T02:40:47;10.60;;;6.57;;
10074;SDS011;5076;42.680;23.288;2022-11-03T02:43:15;9.93;;;6.20;;
10074;SDS011;5076;42.680;23.288;2022-11-03T02:45:42;8.87;;;5.30;;
10074;SDS011;5076;42.680;23.288;2022-11-03T02:48:10;12.87;;;6.40;;
10074;SDS011;5076;42.680;23.288;2022-11-03T02:50:36;10.90;;;5.57;;
10074;SDS011;5076;42.680;23.288;2022-11-03T02:53:03;8.83;;;5.37;;
10074;SDS011;5076;42.680;23.288;2022-11-03T02:55:31;10.13;;;5.80;;
10074;SDS011;5076;42.680;23.288;2022-11-03T02:57:59;9.23;;;4.77;;
10074;SDS011;5076;42.680;23.288;2022-11-03T03:00:29;6.90;;;4.40;;
10074;SDS011;5076;42.680;23.288;2022-11-03T03:02:58;13.13;;;5.80;;
10074;SDS011;5076;42.680;23.288;2022-11-03T03:05:28;8.77;;;5.07;;
10074;SDS011;5076;42.680;23.288;2022-11-03T03:07:56;7.27;;;5.07;;
10074;SDS011;5076;42.680;23.288;2022-11-03T03:10:24;9.67;;;4.80;;
10074;SDS011;5076;42.680;23.288;2022-11-03T03:12:52;9.20;;;5.77;;
10074;SDS011;5076;42.680;23.288;2022-11-03T03:15:21;9.63;;;4.80;;
10074;SDS011;5076;42.680;23.288;2022-11-03T03:17:50;7.47;;;4.87;;
10074;SDS011;5076;42.680;23.288;2022-11-03T03:20:19;7.63;;;5.33;;
10074;SDS011;5076;42.680;23.288;2022-11-03T03:22:46;8.97;;;4.60;;
10074;SDS011;5076;42.680;23.288;2022-11-03T03:25:16;13.23;;;4.70;;
10074;SDS011;5076;42.680;23.288;2022-11-03T03:27:44;7.43;;;5.00;;
10074;SDS011;5076;42.680;23.288;2022-11-03T03:30:13;10.10;;;4.53;;
10074;SDS011;5076;42.680;23.288;2022-11-03T03:32:40;7.13;;;5.17;;
10074;SDS011;5076;42.680;23.288;2022-11-03T03:35:13;8.23;;;4.47;;
10074;SDS011;5076;42.680;23.288;2022-11-03T03:37:42;9.07;;;5.33;;
10074;SDS011;5076;42.680;23.288;2022-11-03T03:40:10;7.90;;;5.10;;
10074;SDS011;5076;42.680;23.288;2022-11-03T03:42:39;6.37;;;4.83;;
10074;SDS011;5076;42.680;23.288;2022-11-03T03:45:07;8.80;;;4.87;;
10074;SDS011;5076;42.680;23.288;2022-11-03T03:47:35;7.43;;;4.93;;
10074;SDS011;5076;42.680;23.288;2022-11-03T03:50:01;9.17;;;5.13;;
10074;SDS011;5076;42.680;23.288;2022-11-03T03:52:29;7.73;;;5.27;;
10074;SDS011;5076;42.680;23.288;2022-11-03T03:54:59;10.27;;;5.70;;
10074;SDS011;5076;42.680;23.288;2022-11-03T03:57:25;7.57;;;5.53;;
10074;SDS011;5076;42.680;23.288;2022-11-03T03:59:52;8.03;;;5.53;;
10074;SDS011;5076;42.680;23.288;2022-11-03T04:02:19;7.87;;;5.07;;
10074;SDS011;5076;42.680;23.288;2022-11-03T04:04:46;9.63;;;5.10;;
10074;SDS011;5076;42.680;23.288;2022-11-03T04:07:12;9.90;;;5.67;;
10074;SDS011;5076;42.680;23.288;2022-11-03T04:09:58;7.73;;;5.13;;
10074;SDS011;5076;42.680;23.288;2022-11-03T04:12:24;12.00;;;5.67;;
10074;SDS011;5076;42.680;23.288;2022-11-03T04:15:16;11.93;;;5.97;;
10074;SDS011;5076;42.680;23.288;2022-11-03T04:18:00;8.83;;;5.37;;
10074;SDS011;5076;42.680;23.288;2022-11-03T04:20:44;8.47;;;5.67;;
10074;SDS011;5076;42.680;23.288;2022-11-03T04:23:28;8.57;;;5.10;;
10074;SDS011;5076;42.680;23.288;2022-11-03T04:25:56;7.43;;;4.60;;
10074;SDS011;5076;42.680;23.288;2022-11-03T04:28:23;8.73;;;5.40;;
10074;SDS011;5076;42.680;23.288;2022-11-03T04:30:50;7.47;;;4.80;;
10074;SDS011;5076;42.680;23.288;2022-11-03T04:33:17;9.00;;;5.27;;
10074;SDS011;5076;42.680;23.288;2022-11-03T04:35:45;6.40;;;5.10;;
10074;SDS011;5076;42.680;23.288;2022-11-03T04:38:19;8.80;;;5.37;;
10074;SDS011;5076;42.680;23.288;2022-11-03T04:40:47;8.20;;;4.87;;
10074;SDS011;5076;42.680;23.288;2022-11-03T04:43:16;10.00;;;6.00;;
10074;SDS011;5076;42.680;23.288;2022-11-03T04:45:43;11.57;;;6.10;;
10074;SDS011;5076;42.680;23.288;2022-11-03T04:48:11;9.73;;;5.70;;
10074;SDS011;5076;42.680;23.288;2022-11-03T04:50:38;11.23;;;6.33;;
10074;SDS011;5076;42.680;23.288;2022-11-03T04:53:07;10.10;;;6.43;;
10074;SDS011;5076;42.680;23.288;2022-11-03T04:55:34;10.80;;;6.33;;
10074;SDS011;5076;42.680;23.288;2022-11-03T04:58:03;10.97;;;6.30;;
10074;SDS011;5076;42.680;23.288;2022-11-03T05:00:31;9.77;;;5.47;;
10074;SDS011;5076;42.680;23.288;2022-11-03T05:02:58;10.67;;;6.00;;
10074;SDS011;5076;42.680;23.288;2022-11-03T05:05:24;10.40;;;6.47;;
10074;SDS011;5076;42.680;23.288;2022-11-03T05:07:52;8.70;;;6.47;;
10074;SDS011;5076;42.680;23.288;2022-11-03T05:10:20;10.73;;;6.63;;
10074;SDS011;5076;42.680;23.288;2022-11-03T05:12:48;9.70;;;6.53;;
10074;SDS011;5076;42.680;23.288;2022-11-03T05:15:28;11.70;;;6.37;;
10074;SDS011;5076;42.680;23.288;2022-11-03T05:17:57;18.77;;;7.87;;
10074;SDS011;5076;42.680;23.288;2022-11-03T05:20:31;11.60;;;6.83;;
10074;SDS011;5076;42.680;23.288;2022-11-03T05:22:59;13.07;;;6.93;;
10074;SDS011;5076;42.680;23.288;2022-11-03T05:25:33;16.93;;;7.83;;
10074;SDS011;5076;42.680;23.288;2022-11-03T05:28:04;19.83;;;7.50;;
10074;SDS011;5076;42.680;23.288;2022-11-03T05:30:34;12.67;;;7.07;;
10074;SDS011;5076;42.680;23.288;2022-11-03T05:33:04;13.93;;;7.40;;
10074;SDS011;5076;42.680;23.288;2022-11-03T05:35:37;15.30;;;7.23;;
10074;SDS011;5076;42.680;23.288;2022-11-03T05:38:05;15.33;;;8.10;;
10074;SDS011;5076;42.680;23.288;2022-11-03T05:40:35;14.80;;;8.37;;
10074;SDS011;5076;42.680;23.288;2022-11-03T05:43:01;30.33;;;9.83;;
10074;SDS011;5076;42.680;23.288;2022-11-03T05:45:28;20.73;;;9.97;;
10074;SDS011;5076;42.680;23.288;2022-11-03T05:47:56;14.67;;;9.63;;
10074;SDS011;5076;42.680;23.288;2022-11-03T05:50:25;21.93;;;10.13;;
10074;SDS011;5076;42.680;23.288;2022-11-03T05:52:53;23.77;;;9.80;;
10074;SDS011;5076;42.680;23.288;2022-11-03T05:55:24;22.50;;;9.87;;
10074;SDS011;5076;42.680;23.288;2022-11-03T05:57:51;19.10;;;8.77;;
10074;SDS011;5076;42.680;23.288;2022-11-03T06:00:20;16.00;;;8.07;;
10074;SDS011;5076;42.680;23.288;2022-11-03T06:02:50;15.37;;;7.90;;
10074;SDS011;5076;42.680;23.288;2022-11-03T06:05:17;13.47;;;7.20;;
10074;SDS011;5076;42.680;23.288;2022-11-03T06:07:46;18.83;;;8.17;;
10074;SDS011;5076;42.680;23.288;2022-11-03T06:10:22;20.60;;;8.73;;
10074;SDS011;5076;42.680;23.288;2022-11-03T06:12:49;15.57;;;8.87;;
10074;SDS011;5076;42.680;23.288;2022-11-03T06:15:21;15.50;;;8.93;;
10074;SDS011;5076;42.680;23.288;2022-11-03T06:17:49;11.40;;;7.50;;
10074;SDS011;5076;42.680;23.288;2022-11-03T06:20:17;18.93;;;8.10;;
10074;SDS011;5076;42.680;23.288;2022-11-03T06:22:47;10.90;;;7.50;;
10074;SDS011;5076;42.680;23.288;2022-11-03T06:25:17;10.83;;;6.70;;
10074;SDS011;5076;42.680;23.288;2022-11-03T06:27:45;17.03;;;12.43;;
10074;SDS011;5076;42.680;23.288;2022-11-03T06:30:18;18.40;;;12.87;;
10074;SDS011;5076;42.680;23.288;2022-11-03T06:32:45;23.87;;;13.50;;
10074;SDS011;5076;42.680;23.288;2022-11-03T06:35:12;21.53;;;12.93;;
10074;SDS011;5076;42.680;23.288;2022-11-03T06:37:39;20.83;;;11.30;;
10074;SDS011;5076;42.680;23.288;2022-11-03T06:40:31;15.07;;;10.70;;
10074;SDS011;5076;42.680;23.288;2022-11-03T06:42:58;17.67;;;10.00;;
10074;SDS011;5076;42.680;23.288;2022-11-03T06:45:25;19.17;;;11.47;;
10074;SDS011;5076;42.680;23.288;2022-11-03T06:47:52;21.07;;;10.77;;
10074;SDS011;5076;42.680;23.288;2022-11-03T06:50:19;22.63;;;11.17;;
10074;SDS011;5076;42.680;23.288;2022-11-03T06:52:47;16.80;;;10.63;;
10074;SDS011;5076;42.680;23.288;2022-11-03T06:55:20;16.67;;;10.60;;
10074;SDS011;5076;42.680;23.288;2022-11-03T06:57:47;18.57;;;11.17;;
10074;SDS011;5076;42.680;23.288;2022-11-03T07:00:15;16.83;;;11.67;;
10074;SDS011;5076;42.680;23.288;2022-11-03T07:02:54;17.87;;;10.67;;
10074;SDS011;5076;42.680;23.288;2022-11-03T07:05:22;15.23;;;10.37;;
10074;SDS011;5076;42.680;23.288;2022-11-03T07:07:50;15.67;;;10.27;;
10074;SDS011;5076;42.680;23.288;2022-11-03T07:10:20;15.10;;;9.67;;
10074;SDS011;5076;42.680;23.288;2022-11-03T07:12:48;17.47;;;9.87;;
10074;SDS011;5076;42.680;23.288;2022-11-03T07:15:15;17.37;;;11.63;;
10074;SDS011;5076;42.680;23.288;2022-11-03T07:17:44;19.57;;;11.27;;
10074;SDS011;5076;42.680;23.288;2022-11-03T07:20:12;18.13;;;11.43;;
10074;SDS011;5076;42.680;23.288;2022-11-03T07:22:40;18.73;;;10.17;;
10074;SDS011;5076;42.680;23.288;2022-11-03T07:25:08;13.30;;;10.13;;
10074;SDS011;5076;42.680;23.288;2022-11-03T07:27:40;15.13;;;9.90;;
10074;SDS011;5076;42.680;23.288;2022-11-03T07:30:11;17.73;;;10.87;;
10074;SDS011;5076;42.680;23.288;2022-11-03T07:32:39;17.87;;;10.00;;
10074;SDS011;5076;42.680;23.288;2022-11-03T07:35:22;16.47;;;9.80;;
10074;SDS011;5076;42.680;23.288;2022-11-03T07:37:49;12.70;;;9.00;;
10074;SDS011;5076;42.680;23.288;2022-11-03T07:40:17;12.30;;;8.57;;
10074;SDS011;5076;42.680;23.288;2022-11-03T07:42:47;17.63;;;9.10;;
10074;SDS011;5076;42.680;23.288;2022-11-03T07:45:34;16.60;;;10.00;;
10074;SDS011;5076;42.680;23.288;2022-11-03T07:48:04;13.23;;;9.30;;
10074;SDS011;5076;42.680;23.288;2022-11-03T07:50:36;12.27;;;9.10;;
10074;SDS011;5076;42.680;23.288;2022-11-03T07:53:05;16.23;;;10.00;;
10074;SDS011;5076;42.680;23.288;2022-11-03T07:55:34;14.50;;;9.97;;
10074;SDS011;5076;42.680;23.288;2022-11-03T07:58:11;15.53;;;9.60;;
10074;SDS011;5076;42.680;23.288;2022-11-03T08:00:39;13.17;;;8.43;;
10074;SDS011;5076;42.680;23.288;2022-11-03T08:03:12;14.70;;;8.57;;
10074;SDS011;5076;42.680;23.288;2022-11-03T08:05:43;15.40;;;9.43;;
10074;SDS011;5076;42.680;23.288;2022-11-03T08:08:09;15.87;;;8.37;;
10074;SDS011;5076;42.680;23.288;2022-11-03T08:10:36;11.60;;;8.83;;
10074;SDS011;5076;42.680;23.288;2022-11-03T08:13:04;12.37;;;8.90;;
10074;SDS011;5076;42.680;23.288;2022-11-03T08:15:31;16.60;;;9.73;;
10074;SDS011;5076;42.680;23.288;2022-11-03T08:17:57;14.20;;;10.03;;
10074;SDS011;5076;42.680;23.288;2022-11-03T08:20:24;18.67;;;11.43;;
10074;SDS011;5076;42.680;23.288;2022-11-03T08:22:50;16.57;;;9.20;;
10074;SDS011;5076;42.680;23.288;2022-11-03T08:25:17;22.40;;;10.97;;
10074;SDS011;5076;42.680;23.288;2022-11-03T08:27:44;15.93;;;10.43;;
10074;SDS011;5076;42.680;23.288;2022-11-03T08:30:12;16.23;;;11.00;;
10074;SDS011;5076;42.680;23.288;2022-11-03T08:32:39;16.03;;;10.43;;
10074;SDS011;5076;42.680;23.288;2022-11-03T08:35:05;15.57;;;10.07;;
10074;SDS011;5076;42.680;23.288;2022-11-03T08:37:32;15.50;;;10.00;;
10074;SDS011;5076;42.680;23.288;2022-11-03T08:39:59;12.97;;;9.23;;
10074;SDS011;5076;42.680;23.288;2022-11-03T08:42:25;15.90;;;10.03;;
10074;SDS011;5076;42.680;23.288;2022-11-03T08:44:52;15.00;;;10.53;;
10074;SDS011;5076;42.680;23.288;2022-11-03T08:47:20;15.37;;;9.13;;
10074;SDS011;5076;42.680;23.288;2022-11-03T08:49:46;16.50;;;9.03;;
10074;SDS011;5076;42.680;23.288;2022-11-03T08:52:13;14.77;;;9.20;;
10074;SDS011;5076;42.680;23.288;2022-11-03T08:54:40;15.30;;;10.43;;
10074;SDS011;5076;42.680;23.288;2022-11-03T08:57:07;16.83;;;9.67;;
10074;SDS011;5076;42.680;23.288;2022-11-03T08:59:33;11.53;;;8.37;;
10074;SDS011;5076;42.680;23.288;2022-11-03T09:02:00;12.97;;;8.87;;
10074;SDS011;5076;42.680;23.288;2022-11-03T09:04:28;12.37;;;8.30;;
10074;SDS011;5076;42.680;23.288;2022-11-03T09:06:54;19.77;;;9.37;;
10074;SDS011;5076;42.680;23.288;2022-11-03T09:09:21;13.67;;;8.90;;
10074;SDS011;5076;42.680;23.288;2022-11-03T09:11:48;17.13;;;9.23;;
10074;SDS011;5076;42.680;23.288;2022-11-03T09:14:14;11.80;;;8.50;;
10074;SDS011;5076;42.680;23.288;2022-11-03T09:16:41;14.40;;;9.47;;
10074;SDS011;5076;42.680;23.288;2022-11-03T09:19:07;13.30;;;9.03;;
10074;SDS011;5076;42.680;23.288;2022-11-03T09:21:35;12.53;;;8.60;;
10074;SDS011;5076;42.680;23.288;2022-11-03T09:24:02;16.47;;;8.80;;
10074;SDS011;5076;42.680;23.288;2022-11-03T09:26:29;16.33;;;9.20;;
10074;SDS011;5076;42.680;23.288;2022-11-03T09:28:56;11.90;;;8.43;;
10074;SDS011;5076;42.680;23.288;2022-11-03T09:31:22;12.43;;;8.87;;
10074;SDS011;5076;42.680;23.288;2022-11-03T09:33:52;12.90;;;8.30;;
10074;SDS011;5076;42.680;23.288;2022-11-03T09:36:18;15.80;;;9.53;;
10074;SDS011;5076;42.680;23.288;2022-11-03T09:38:47;12.50;;;8.30;;
10074;SDS011;5076;42.680;23.288;2022-11-03T09:41:13;13.77;;;7.60;;
10074;SDS011;5076;42.680;23.288;2022-11-03T09:43:42;14.30;;;8.07;;
10074;SDS011;5076;42.680;23.288;2022-11-03T09:46:08;10.97;;;7.63;;
10074;SDS011;5076;42.680;23.288;2022-11-03T09:48:35;12.83;;;7.37;;
10074;SDS011;5076;42.680;23.288;2022-11-03T09:51:02;10.33;;;7.53;;
10074;SDS011;5076;42.680;23.288;2022-11-03T09:53:28;15.57;;;8.70;;
10074;SDS011;5076;42.680;23.288;2022-11-03T09:55:56;14.07;;;7.30;;
10074;SDS011;5076;42.680;23.288;2022-11-03T09:58:23;11.00;;;7.40;;
10074;SDS011;5076;42.680;23.288;2022-11-03T10:00:49;18.80;;;7.60;;
10074;SDS011;5076;42.680;23.288;2022-11-03T10:03:16;10.90;;;6.97;;
10074;SDS011;5076;42.680;23.288;2022-11-03T10:05:44;15.73;;;8.40;;
10074;SDS011;5076;42.680;23.288;2022-11-03T10:08:12;14.53;;;8.43;;
10074;SDS011;5076;42.680;23.288;2022-11-03T10:10:42;12.47;;;7.90;;
10074;SDS011;5076;42.680;23.288;2022-11-03T10:13:10;19.03;;;7.47;;
10074;SDS011;5076;42.680;23.288;2022-11-03T10:15:40;13.40;;;7.20;;
10074;SDS011;5076;42.680;23.288;2022-11-03T10:18:07;15.27;;;8.20;;
10074;SDS011;5076;42.680;23.288;2022-11-03T10:20:34;15.70;;;7.83;;
10074;SDS011;5076;42.680;23.288;2022-11-03T10:23:00;11.23;;;7.27;;
10074;SDS011;5076;42.680;23.288;2022-11-03T10:25:28;11.37;;;7.57;;
10074;SDS011;5076;42.680;23.288;2022-11-03T10:28:16;10.33;;;6.90;;
10074;SDS011;5076;42.680;23.288;2022-11-03T10:30:53;11.33;;;7.10;;
10074;SDS011;5076;42.680;23.288;2022-11-03T10:33:26;13.97;;;8.20;;
10074;SDS011;5076;42.680;23.288;2022-11-03T10:35:53;12.90;;;7.10;;
10074;SDS011;5076;42.680;23.288;2022-11-03T10:38:21;10.67;;;7.73;;
10074;SDS011;5076;42.680;23.288;2022-11-03T10:40:49;10.00;;;6.13;;
10074;SDS011;5076;42.680;23.288;2022-11-03T10:43:17;15.07;;;9.90;;
10074;SDS011;5076;42.680;23.288;2022-11-03T10:45:44;17.80;;;9.40;;
10074;SDS011;5076;42.680;23.288;2022-11-03T10:48:11;12.73;;;7.00;;
10074;SDS011;5076;42.680;23.288;2022-11-03T10:50:38;10.27;;;5.03;;
10074;SDS011;5076;42.680;23.288;2022-11-03T10:53:05;8.27;;;4.80;;
10074;SDS011;5076;42.680;23.288;2022-11-03T10:55:38;12.67;;;5.03;;
10074;SDS011;5076;42.680;23.288;2022-11-03T10:58:05;11.60;;;4.97;;
10074;SDS011;5076;42.680;23.288;2022-11-03T11:00:33;9.80;;;5.33;;
10074;SDS011;5076;42.680;23.288;2022-11-03T11:03:00;9.67;;;4.80;;
10074;SDS011;5076;42.680;23.288;2022-11-03T11:05:27;8.90;;;4.70;;
10074;SDS011;5076;42.680;23.288;2022-11-03T11:07:53;9.20;;;4.27;;
10074;SDS011;5076;42.680;23.288;2022-11-03T11:10:21;12.17;;;4.40;;
10074;SDS011;5076;42.680;23.288;2022-11-03T11:13:04;9.67;;;4.83;;
10074;SDS011;5076;42.680;23.288;2022-11-03T11:15:36;9.17;;;4.53;;
10074;SDS011;5076;42.680;23.288;2022-11-03T11:18:03;7.57;;;3.70;;
10074;SDS011;5076;42.680;23.288;2022-11-03T11:20:31;9.30;;;4.87;;
10074;SDS011;5076;42.680;23.288;2022-11-03T11:28:30;7.07;;;4.00;;
10074;SDS011;5076;42.680;23.288;2022-11-03T11:30:58;6.30;;;3.47;;
10074;SDS011;5076;42.680;23.288;2022-11-03T11:33:25;8.07;;;3.47;;
10074;SDS011;5076;42.680;23.288;2022-11-03T11:38:52;8.83;;;4.13;;
10074;SDS011;5076;42.680;23.288;2022-11-03T11:41:19;9.17;;;4.00;;
10074;SDS011;5076;42.680;23.288;2022-11-03T11:43:46;8.00;;;3.90;;
10074;SDS011;5076;42.680;23.288;2022-11-03T11:46:35;12.50;;;4.37;;
10074;SDS011;5076;42.680;23.288;2022-11-03T11:49:16;7.00;;;3.70;;
10074;SDS011;5076;42.680;23.288;2022-11-03T11:51:42;11.73;;;3.80;;
10074;SDS011;5076;42.680;23.288;2022-11-03T11:54:10;7.40;;;3.77;;
10074;SDS011;5076;42.680;23.288;2022-11-03T11:56:40;9.43;;;4.13;;
10074;SDS011;5076;42.680;23.288;2022-11-03T11:59:10;9.27;;;3.83;;
10074;SDS011;5076;42.680;23.288;2022-11-03T12:01:42;9.17;;;3.53;;
10074;SDS011;5076;42.680;23.288;2022-11-03T12:04:13;9.00;;;3.43;;
10074;SDS011;5076;42.680;23.288;2022-11-03T12:06:40;12.07;;;4.53;;
10074;SDS011;5076;42.680;23.288;2022-11-03T12:09:13;8.40;;;4.30;;
10074;SDS011;5076;42.680;23.288;2022-11-03T12:11:41;9.40;;;3.83;;
10074;SDS011;5076;42.680;23.288;2022-11-03T12:14:19;10.23;;;3.90;;
10074;SDS011;5076;42.680;23.288;2022-11-03T12:16:47;10.57;;;4.03;;
10074;SDS011;5076;42.680;23.288;2022-11-03T12:19:33;8.10;;;3.50;;
10074;SDS011;5076;42.680;23.288;2022-11-03T12:22:00;8.67;;;2.87;;
10074;SDS011;5076;42.680;23.288;2022-11-03T12:24:37;4.23;;;2.63;;
10074;SDS011;5076;42.680;23.288;2022-11-03T12:27:15;7.33;;;2.90;;
10074;SDS011;5076;42.680;23.288;2022-11-03T12:29:42;5.33;;;2.30;;
10074;SDS011;5076;42.680;23.288;2022-11-03T12:32:10;6.20;;;2.47;;
10074;SDS011;5076;42.680;23.288;2022-11-03T12:34:37;6.13;;;2.77;;
10074;SDS011;5076;42.680;23.288;2022-11-03T12:37:03;6.37;;;2.50;;
10074;SDS011;5076;42.680;23.288;2022-11-03T12:39:30;5.83;;;2.90;;
10074;SDS011;5076;42.680;23.288;2022-11-03T12:41:57;8.60;;;3.50;;
10074;SDS011;5076;42.680;23.288;2022-11-03T12:44:23;7.17;;;4.17;;
10074;SDS011;5076;42.680;23.288;2022-11-03T12:46:50;6.30;;;3.57;;
10074;SDS011;5076;42.680;23.288;2022-11-03T12:49:18;6.17;;;3.57;;
10074;SDS011;5076;42.680;23.288;2022-11-03T12:51:44;6.97;;;3.30;;
10074;SDS011;5076;42.680;23.288;2022-11-03T12:54:11;7.47;;;3.67;;
10074;SDS011;5076;42.680;23.288;2022-11-03T12:56:37;6.87;;;3.67;;
10074;SDS011;5076;42.680;23.288;2022-11-03T12:59:04;7.43;;;3.53;;
10074;SDS011;5076;42.680;23.288;2022-11-03T13:01:30;7.40;;;3.80;;
10074;SDS011;5076;42.680;23.288;2022-11-03T13:03:57;8.00;;;3.90;;
10074;SDS011;5076;42.680;23.288;2022-11-03T13:06:25;7.70;;;3.50;;
10074;SDS011;5076;42.680;23.288;2022-11-03T13:08:52;6.83;;;3.83;;
10074;SDS011;5076;42.680;23.288;2022-11-03T13:11:19;6.40;;;3.70;;
10074;SDS011;5076;42.680;23.288;2022-11-03T13:14:03;7.30;;;4.03;;
10074;SDS011;5076;42.680;23.288;2022-11-03T13:16:30;8.80;;;3.40;;
10074;SDS011;5076;42.680;23.288;2022-11-03T13:18:56;9.90;;;3.77;;
10074;SDS011;5076;42.680;23.288;2022-11-03T13:21:23;12.17;;;3.87;;
10074;SDS011;5076;42.680;23.288;2022-11-03T13:23:51;9.73;;;4.07;;
10074;SDS011;5076;42.680;23.288;2022-11-03T13:26:18;9.30;;;3.77;;
10074;SDS011;5076;42.680;23.288;2022-11-03T13:28:44;7.80;;;3.63;;
10074;SDS011;5076;42.680;23.288;2022-11-03T13:31:11;9.27;;;4.33;;
10074;SDS011;5076;42.680;23.288;2022-11-03T13:33:38;5.33;;;3.50;;
10074;SDS011;5076;42.680;23.288;2022-11-03T13:36:04;7.93;;;3.70;;
10074;SDS011;5076;42.680;23.288;2022-11-03T13:38:31;8.63;;;3.53;;
10074;SDS011;5076;42.680;23.288;2022-11-03T13:40:59;7.53;;;3.70;;
10074;SDS011;5076;42.680;23.288;2022-11-03T13:43:25;8.47;;;4.40;;
10074;SDS011;5076;42.680;23.288;2022-11-03T13:45:53;15.63;;;4.83;;
10074;SDS011;5076;42.680;23.288;2022-11-03T13:48:22;5.70;;;3.20;;
10074;SDS011;5076;42.680;23.288;2022-11-03T13:50:49;9.13;;;3.90;;
10074;SDS011;5076;42.680;23.288;2022-11-03T13:53:16;8.37;;;3.40;;
10074;SDS011;5076;42.680;23.288;2022-11-03T13:55:42;7.87;;;3.53;;
10074;SDS011;5076;42.680;23.288;2022-11-03T13:58:10;8.47;;;4.10;;
10074;SDS011;5076;42.680;23.288;2022-11-03T14:00:37;7.80;;;4.27;;
10074;SDS011;5076;42.680;23.288;2022-11-03T14:03:03;6.77;;;3.87;;
10074;SDS011;5076;42.680;23.288;2022-11-03T14:05:30;9.33;;;3.80;;
10074;SDS011;5076;42.680;23.288;2022-11-03T14:07:57;6.90;;;4.00;;
10074;SDS011;5076;42.680;23.288;2022-11-03T14:10:23;10.87;;;4.00;;
10074;SDS011;5076;42.680;23.288;2022-11-03T14:12:50;8.17;;;4.17;;
10074;SDS011;5076;42.680;23.288;2022-11-03T14:15:18;12.27;;;4.97;;
10074;SDS011;5076;42.680;23.288;2022-11-03T14:17:45;12.23;;;4.87;;
10074;SDS011;5076;42.680;23.288;2022-11-03T14:20:11;10.83;;;4.30;;
10074;SDS011;5076;42.680;23.288;2022-11-03T14:22:38;8.43;;;4.37;;
10074;SDS011;5076;42.680;23.288;2022-11-03T14:25:05;15.90;;;4.80;;
10074;SDS011;5076;42.680;23.288;2022-11-03T14:27:31;14.30;;;5.23;;
10074;SDS011;5076;42.680;23.288;2022-11-03T14:29:58;9.77;;;4.10;;
10074;SDS011;5076;42.680;23.288;2022-11-03T14:32:26;12.67;;;5.00;;
10074;SDS011;5076;42.680;23.288;2022-11-03T14:34:54;15.47;;;4.90;;
10074;SDS011;5076;42.680;23.288;2022-11-03T14:37:21;9.13;;;3.70;;
10074;SDS011;5076;42.680;23.288;2022-11-03T14:39:49;11.97;;;4.90;;
10074;SDS011;5076;42.680;23.288;2022-11-03T14:42:15;14.63;;;6.20;;
10074;SDS011;5076;42.680;23.288;2022-11-03T14:44:41;13.40;;;7.93;;
10074;SDS011;5076;42.680;23.288;2022-11-03T14:47:09;17.10;;;9.73;;
10074;SDS011;5076;42.680;23.288;2022-11-03T14:49:38;20.33;;;10.87;;
10074;SDS011;5076;42.680;23.288;2022-11-03T14:52:05;12.67;;;9.23;;
10074;SDS011;5076;42.680;23.288;2022-11-03T14:54:32;12.87;;;7.30;;